createdAt,value
2023-02-22T00:02:14.020Z,3.20
2023-02-22T00:04:43.581Z,3.20
2023-02-22T00:07:11.732Z,3.10
2023-02-22T00:09:39.905Z,3.10
2023-02-22T00:12:08.662Z,3.10
2023-02-22T00:14:36.816Z,3.00
2023-02-22T00:17:04.994Z,3.00
2023-02-22T00:19:33.141Z,3.00
2023-02-22T00:22:03.084Z,3.00
2023-02-22T00:24:33.423Z,2.80
2023-02-22T00:27:03.511Z,2.80
2023-02-22T00:29:34.322Z,2.80
2023-02-22T00:32:02.626Z,2.80
2023-02-22T00:34:30.826Z,2.80
2023-02-22T00:37:02.850Z,2.80
2023-02-22T00:39:32.743Z,2.70
2023-02-22T00:42:01.174Z,2.80
2023-02-22T00:44:29.552Z,2.70
2023-02-22T00:46:57.703Z,2.70
2023-02-22T00:49:26.136Z,2.70
2023-02-22T00:51:54.867Z,2.70
2023-02-22T00:54:23.040Z,2.70
2023-02-22T00:56:52.639Z,2.70
2023-02-22T00:59:20.932Z,2.70
2023-02-22T01:01:49.046Z,2.70
2023-02-22T01:04:18.413Z,2.60
2023-02-22T01:06:46.730Z,2.60
2023-02-22T01:09:14.859Z,2.70
2023-02-22T01:11:45.391Z,2.60
2023-02-22T01:14:14.940Z,2.60
2023-02-22T01:16:43.127Z,2.60
2023-02-22T01:19:12.830Z,2.60
2023-02-22T01:21:41.602Z,2.50
2023-02-22T01:24:09.820Z,2.50
2023-02-22T01:26:37.986Z,2.50
2023-02-22T01:29:06.127Z,2.50
2023-02-22T01:31:35.701Z,2.40
2023-02-22T01:34:04.200Z,2.40
2023-02-22T01:36:32.346Z,2.50
2023-02-22T01:39:00.480Z,2.50
2023-02-22T01:41:28.650Z,2.60
2023-02-22T01:43:56.783Z,2.50
2023-02-22T01:46:26.406Z,2.50
2023-02-22T01:49:01.853Z,2.50
2023-02-22T01:51:37.566Z,2.60
2023-02-22T01:54:09.763Z,2.60
2023-02-22T01:56:41.524Z,2.70
2023-02-22T01:59:12.652Z,2.60
2023-02-22T02:01:43.211Z,2.60
2023-02-22T02:04:17.400Z,2.60
2023-02-22T02:06:46.621Z,2.70
2023-02-22T02:09:21.603Z,2.60
2023-02-22T02:11:50.957Z,2.70
2023-02-22T02:14:19.462Z,2.60
2023-02-22T02:16:49.993Z,2.60
2023-02-22T02:19:30.756Z,2.50
2023-02-22T02:22:31.536Z,2.50
2023-02-22T02:25:28.499Z,2.50
2023-02-22T02:28:34.140Z,2.40
2023-02-22T02:31:23.143Z,2.40
2023-02-22T02:34:00.328Z,2.50
2023-02-22T02:36:35.120Z,2.50
2023-02-22T02:39:10.264Z,2.50
2023-02-22T02:41:42.374Z,2.50
2023-02-22T02:44:15.858Z,2.40
2023-02-22T02:46:52.252Z,2.50
2023-02-22T02:49:27.354Z,2.50
2023-02-22T02:51:58.212Z,2.50
2023-02-22T02:54:26.670Z,2.50
2023-02-22T02:56:55.754Z,2.50
2023-02-22T02:59:28.957Z,2.50
2023-02-22T03:02:14.871Z,2.60
2023-02-22T03:05:02.474Z,2.60
2023-02-22T03:07:43.706Z,2.60
2023-02-22T03:10:44.693Z,2.50
2023-02-22T03:13:20.587Z,2.60
2023-02-22T03:15:57.074Z,2.70
2023-02-22T03:18:30.221Z,2.70
2023-02-22T03:21:08.283Z,2.60
2023-02-22T03:23:44.936Z,2.70
2023-02-22T03:26:19.472Z,2.70
2023-02-22T03:28:50.126Z,2.70
2023-02-22T03:31:24.150Z,2.70
2023-02-22T03:33:55.278Z,2.70
2023-02-22T03:36:28.660Z,2.70
2023-02-22T03:39:00.306Z,2.60
2023-02-22T03:41:31.115Z,2.60
2023-02-22T03:44:03.234Z,2.60
2023-02-22T03:46:32.678Z,2.60
2023-02-22T03:49:04.540Z,2.60
2023-02-22T03:51:34.546Z,2.60
2023-02-22T03:54:03.204Z,2.60
2023-02-22T03:56:35.950Z,2.60
2023-02-22T03:59:06.301Z,2.60
2023-02-22T04:01:34.498Z,2.60
2023-02-22T04:04:03.123Z,2.50
2023-02-22T04:06:31.368Z,2.50
2023-02-22T04:09:00.991Z,2.50
2023-02-22T04:11:29.128Z,2.40
2023-02-22T04:13:58.391Z,2.50
2023-02-22T04:16:26.615Z,2.50
2023-02-22T04:18:54.756Z,2.50
2023-02-22T04:21:23.086Z,2.50
2023-02-22T04:23:51.476Z,2.40
2023-02-22T04:26:21.049Z,2.40
2023-02-22T04:28:49.291Z,2.40
2023-02-22T04:31:17.868Z,2.40
2023-02-22T04:33:46.244Z,2.30
2023-02-22T04:36:16.113Z,2.40
2023-02-22T04:38:44.805Z,2.40
2023-02-22T04:41:12.983Z,2.40
2023-02-22T04:43:42.530Z,2.30
2023-02-22T04:46:10.742Z,2.30
2023-02-22T04:48:38.935Z,2.30
2023-02-22T04:51:08.588Z,2.30
2023-02-22T04:53:36.833Z,2.20
2023-02-22T04:56:05.123Z,2.20
2023-02-22T04:58:33.227Z,2.20
2023-02-22T05:01:03.231Z,2.20
2023-02-22T05:03:32.930Z,2.20
2023-02-22T05:06:01.296Z,2.20
2023-02-22T05:08:29.613Z,2.20
2023-02-22T05:10:57.795Z,2.20
2023-02-22T05:13:28.915Z,2.20
2023-02-22T05:15:57.159Z,2.20
2023-02-22T05:18:26.804Z,2.20
2023-02-22T05:20:54.984Z,2.20
2023-02-22T05:23:23.152Z,2.30
2023-02-22T05:25:53.257Z,2.20
2023-02-22T05:28:21.434Z,2.20
2023-02-22T05:30:56.736Z,2.20
2023-02-22T05:33:26.384Z,2.20
2023-02-22T05:35:56.120Z,2.20
2023-02-22T05:38:24.423Z,2.20
2023-02-22T05:40:52.667Z,2.20
2023-02-22T05:43:20.843Z,2.20
2023-02-22T05:45:49.003Z,2.20
2023-02-22T05:48:17.157Z,2.20
2023-02-22T05:50:47.243Z,2.20
2023-02-22T05:53:15.416Z,2.30
2023-02-22T05:55:45.585Z,2.30
2023-02-22T05:58:15.175Z,2.20
2023-02-22T06:00:43.454Z,2.30
2023-02-22T06:03:12.848Z,2.30
2023-02-22T06:05:41.506Z,2.30
2023-02-22T06:08:11.096Z,2.40
2023-02-22T06:10:39.448Z,2.30
2023-02-22T06:13:07.929Z,2.40
2023-02-22T06:15:36.090Z,2.30
2023-02-22T06:18:04.468Z,2.40
2023-02-22T06:20:33.448Z,2.40
2023-02-22T06:23:01.619Z,2.40
2023-02-22T06:25:32.498Z,2.40
2023-02-22T06:28:01.930Z,2.20
2023-02-22T06:30:31.013Z,2.20
2023-02-22T06:32:59.426Z,2.30
2023-02-22T06:35:28.122Z,2.30
2023-02-22T06:37:56.283Z,2.40
2023-02-22T06:40:24.432Z,2.40
2023-02-22T06:42:54.230Z,2.30
2023-02-22T06:45:22.525Z,2.40
2023-02-22T06:47:50.897Z,2.40
2023-02-22T06:50:22.407Z,2.40
2023-02-22T06:52:50.554Z,2.40
2023-02-22T06:55:20.570Z,2.50
2023-02-22T06:57:48.813Z,2.50
2023-02-22T07:00:19.899Z,2.50
2023-02-22T07:02:49.354Z,2.50
2023-02-22T07:05:19.515Z,2.50
2023-02-22T07:07:48.247Z,2.60
2023-02-22T07:10:21.580Z,2.50
2023-02-22T07:12:50.110Z,2.60
2023-02-22T07:15:23.638Z,2.60
2023-02-22T07:17:52.328Z,2.60
2023-02-22T07:20:22.210Z,2.60
2023-02-22T07:22:50.734Z,2.60
2023-02-22T07:25:19.468Z,2.70
2023-02-22T07:27:48.214Z,2.70
2023-02-22T07:30:25.103Z,2.70
2023-02-22T07:32:54.634Z,2.80
2023-02-22T07:35:24.854Z,2.80
2023-02-22T07:37:55.723Z,2.80
2023-02-22T07:40:25.751Z,2.90
2023-02-22T07:42:59.549Z,2.90
2023-02-22T07:45:30.794Z,2.90
2023-02-22T07:47:59.357Z,3.00
2023-02-22T07:50:30.498Z,3.10
2023-02-22T07:53:00.846Z,3.10
2023-02-22T07:55:30.850Z,3.00
2023-02-22T07:58:00.874Z,3.00
2023-02-22T08:00:31.889Z,3.00
2023-02-22T08:03:01.203Z,3.10
2023-02-22T08:05:30.495Z,3.00
2023-02-22T08:07:58.787Z,3.10
2023-02-22T08:10:27.915Z,3.10
2023-02-22T08:12:57.050Z,3.10
2023-02-22T08:15:28.543Z,3.10
2023-02-22T08:17:59.095Z,3.00
2023-02-22T08:20:30.708Z,3.00
2023-02-22T08:22:59.838Z,3.10
2023-02-22T08:25:29.919Z,3.10
2023-02-22T08:28:01.312Z,3.00
2023-02-22T08:30:32.010Z,3.00
2023-02-22T08:33:02.622Z,3.10
2023-02-22T08:35:32.404Z,3.20
2023-02-22T08:38:03.163Z,3.20
2023-02-22T08:40:33.521Z,3.20
2023-02-22T08:43:02.554Z,3.30
2023-02-22T08:45:31.055Z,3.20
2023-02-22T08:48:01.226Z,3.10
2023-02-22T08:50:31.123Z,3.20
2023-02-22T08:53:01.702Z,3.10
2023-02-22T08:55:32.366Z,3.20
2023-02-22T08:58:01.476Z,3.20
2023-02-22T09:00:33.097Z,3.20
2023-02-22T09:03:03.857Z,3.20
2023-02-22T09:05:32.368Z,3.20
2023-02-22T09:08:00.953Z,3.30
2023-02-22T09:10:32.315Z,3.20
2023-02-22T09:13:02.343Z,3.20
2023-02-22T09:15:31.752Z,3.10
2023-02-22T09:18:02.062Z,2.90
2023-02-22T09:20:31.135Z,2.60
2023-02-22T09:22:59.620Z,2.30
2023-02-22T09:25:28.073Z,2.20
2023-02-22T09:27:57.681Z,2.50
2023-02-22T09:30:32.149Z,1.90
2023-02-22T09:33:03.874Z,1.90
2023-02-22T09:35:36.242Z,1.70
2023-02-22T09:38:06.347Z,1.80
2023-02-22T09:40:44.784Z,1.70
2023-02-22T09:43:28.152Z,1.60
2023-02-22T09:46:13.609Z,1.50
2023-02-22T09:48:58.381Z,1.60
2023-02-22T09:51:31.807Z,1.60
2023-02-22T09:54:03.368Z,1.50
2023-02-22T09:56:34.997Z,1.50
2023-02-22T09:59:07.182Z,1.70
2023-02-22T10:01:42.664Z,1.70
2023-02-22T10:04:20.558Z,1.70
2023-02-22T10:07:06.026Z,1.70
2023-02-22T10:09:38.150Z,2.00
2023-02-22T10:12:12.771Z,2.10
2023-02-22T10:15:19.506Z,2.10
2023-02-22T10:17:55.078Z,1.90
2023-02-22T10:20:41.053Z,1.70
2023-02-22T10:23:18.060Z,1.80
2023-02-22T10:25:50.129Z,2.00
2023-02-22T10:28:22.833Z,2.00
2023-02-22T10:30:55.353Z,2.10
2023-02-22T10:33:26.569Z,2.10
2023-02-22T10:35:57.100Z,2.20
2023-02-22T10:38:27.807Z,2.20
2023-02-22T10:41:02.107Z,2.20
2023-02-22T10:43:30.690Z,2.10
2023-02-22T10:46:03.591Z,2.20
2023-02-22T10:48:33.630Z,2.10
2023-02-22T10:51:06.543Z,2.20
2023-02-22T10:53:38.008Z,2.30
2023-02-22T10:56:12.772Z,2.40
2023-02-22T10:58:47.841Z,2.30
2023-02-22T11:01:21.629Z,2.30
2023-02-22T11:04:02.497Z,2.30
2023-02-22T11:06:34.085Z,2.40
2023-02-22T11:09:13.988Z,2.40
2023-02-22T11:11:45.964Z,2.30
2023-02-22T11:14:25.535Z,2.40
2023-02-22T11:16:56.997Z,2.40
2023-02-22T11:19:27.399Z,2.50
2023-02-22T11:21:59.440Z,2.50
2023-02-22T11:24:37.263Z,2.60
2023-02-22T11:27:08.953Z,2.70
2023-02-22T11:29:39.301Z,2.60
2023-02-22T11:32:21.106Z,2.50
2023-02-22T11:35:03.514Z,2.60
2023-02-22T11:37:38.169Z,2.70
2023-02-22T11:40:13.746Z,2.80
2023-02-22T11:42:41.936Z,2.70
2023-02-22T11:45:13.576Z,2.60
2023-02-22T11:47:52.993Z,2.80
2023-02-22T11:50:28.957Z,2.70
2023-02-22T11:53:26.412Z,2.80
2023-02-22T11:56:16.110Z,2.80
2023-02-22T11:58:49.322Z,2.90
2023-02-22T12:01:28.133Z,2.90
2023-02-22T12:04:28.706Z,2.70
2023-02-22T12:07:08.332Z,2.80
2023-02-22T12:09:45.515Z,2.80
2023-02-22T12:12:24.901Z,2.90
2023-02-22T12:15:02.105Z,2.80
2023-02-22T12:17:43.626Z,2.80
2023-02-22T12:20:22.889Z,2.90
2023-02-22T12:23:02.185Z,2.80
2023-02-22T12:25:35.874Z,2.80
2023-02-22T12:28:24.590Z,2.80
2023-02-22T12:31:01.701Z,2.60
2023-02-22T12:33:44.036Z,2.40
2023-02-22T12:36:17.250Z,2.60
2023-02-22T12:38:52.201Z,2.70
2023-02-22T12:41:28.809Z,2.70
2023-02-22T12:44:03.638Z,2.70
2023-02-22T12:46:35.310Z,2.80
2023-02-22T12:49:14.680Z,2.70
2023-02-22T12:51:51.552Z,2.70
2023-02-22T12:54:29.870Z,2.60
2023-02-22T12:57:08.168Z,2.70
2023-02-22T12:59:47.060Z,2.60
2023-02-22T13:02:21.947Z,2.60
2023-02-22T13:04:50.635Z,2.50
2023-02-22T13:07:34.558Z,2.40
2023-02-22T13:10:30.769Z,2.40
2023-02-22T13:13:08.139Z,2.40
2023-02-22T13:15:46.274Z,2.20
2023-02-22T13:18:21.270Z,2.20
2023-02-22T13:20:54.253Z,2.10
2023-02-22T13:23:34.251Z,2.10
2023-02-22T13:26:11.955Z,2.00
2023-02-22T13:28:45.880Z,2.20
2023-02-22T13:31:46.888Z,2.20
2023-02-22T13:34:32.086Z,2.10
2023-02-22T13:37:22.522Z,2.10
2023-02-22T13:40:41.895Z,2.10
2023-02-22T13:43:43.260Z,2.10
2023-02-22T13:46:57.920Z,2.20
2023-02-22T13:49:49.330Z,2.00
2023-02-22T13:52:21.273Z,2.00
2023-02-22T13:54:54.580Z,2.10
2023-02-22T13:57:25.409Z,2.00
2023-02-22T14:00:22.894Z,2.00
2023-02-22T14:03:06.843Z,2.00
2023-02-22T14:05:52.543Z,1.90
2023-02-22T14:08:50.897Z,2.00
2023-02-22T14:11:57.905Z,2.10
2023-02-22T14:14:26.289Z,2.00
2023-02-22T14:17:23.289Z,2.00
2023-02-22T14:20:20.450Z,2.10
2023-02-22T14:22:50.861Z,2.00
2023-02-22T14:25:37.896Z,2.10
2023-02-22T14:28:08.097Z,2.10
2023-02-22T14:30:39.046Z,2.00
2023-02-22T14:33:42.088Z,2.00
2023-02-22T14:36:13.852Z,2.10
2023-02-22T14:38:46.143Z,2.00
2023-02-22T14:41:16.394Z,2.00
2023-02-22T14:43:46.444Z,1.90
2023-02-22T14:46:22.821Z,1.80
2023-02-22T14:48:56.679Z,1.90
2023-02-22T14:51:29.647Z,1.80
2023-02-22T14:54:03.722Z,1.70
2023-02-22T14:56:41.191Z,1.80
2023-02-22T14:59:19.595Z,1.70
2023-02-22T15:02:01.738Z,1.70
2023-02-22T15:04:34.181Z,1.70
2023-02-22T15:07:12.639Z,1.70
2023-02-22T15:09:40.792Z,1.60
2023-02-22T15:12:18.268Z,1.60
2023-02-22T15:14:48.506Z,1.60
2023-02-22T15:17:20.854Z,1.60
2023-02-22T15:19:50.018Z,1.70
2023-02-22T15:22:22.866Z,1.70
2023-02-22T15:25:00.151Z,1.60
2023-02-22T15:27:29.404Z,1.70
2023-02-22T15:30:04.746Z,1.70
2023-02-22T15:32:36.239Z,1.70
2023-02-22T15:35:16.585Z,1.60
2023-02-22T15:37:47.635Z,1.60
2023-02-22T15:40:18.680Z,1.70
2023-02-22T15:42:49.236Z,1.70
2023-02-22T15:45:19.911Z,1.60
2023-02-22T15:47:49.783Z,1.60
2023-02-22T15:50:25.867Z,1.50
2023-02-22T15:52:59.202Z,1.60
2023-02-22T15:55:30.529Z,1.60
2023-02-22T15:58:02.750Z,1.60
2023-02-22T16:00:37.070Z,1.60
2023-02-22T16:03:07.915Z,1.50
2023-02-22T16:05:40.353Z,1.50
2023-02-22T16:08:16.789Z,1.60
2023-02-22T16:10:54.366Z,1.60
2023-02-22T16:13:31.918Z,1.70
2023-02-22T16:16:03.131Z,1.70
2023-02-22T16:18:33.869Z,1.70
2023-02-22T16:21:08.045Z,1.60
2023-02-22T16:23:47.237Z,1.60
2023-02-22T16:26:30.748Z,1.70
2023-02-22T16:29:00.328Z,1.70
2023-02-22T16:31:32.006Z,1.60
2023-02-22T16:34:00.404Z,1.70
2023-02-22T16:36:39.922Z,1.80
2023-02-22T16:39:14.000Z,1.70
2023-02-22T16:41:42.732Z,1.70
2023-02-22T16:44:12.897Z,1.70
2023-02-22T16:46:41.942Z,1.70
2023-02-22T16:49:11.426Z,1.70
2023-02-22T16:51:43.901Z,1.70
2023-02-22T16:54:15.618Z,1.70
2023-02-22T16:56:43.832Z,1.60
2023-02-22T16:59:15.217Z,1.70
2023-02-22T17:01:44.127Z,1.60
2023-02-22T17:04:17.918Z,1.70
2023-02-22T17:06:46.339Z,1.70
2023-02-22T17:09:16.408Z,1.60
2023-02-22T17:11:45.366Z,1.60
2023-02-22T17:14:19.135Z,1.60
2023-02-22T17:16:47.622Z,1.60
2023-02-22T17:19:18.526Z,1.50
2023-02-22T17:21:46.748Z,1.60
2023-02-22T17:24:18.311Z,1.60
2023-02-22T17:26:46.592Z,1.50
2023-02-22T17:29:15.305Z,1.50
2023-02-22T17:31:43.711Z,1.50
2023-02-22T17:34:12.050Z,1.50
2023-02-22T17:36:40.237Z,1.50
2023-02-22T17:39:10.490Z,1.50
2023-02-22T17:41:40.974Z,1.50
2023-02-22T17:44:09.622Z,1.50
2023-02-22T17:46:40.782Z,1.50
2023-02-22T17:49:09.326Z,1.60
2023-02-22T17:51:41.391Z,1.50
2023-02-22T17:54:10.538Z,1.50
2023-02-22T17:56:41.450Z,1.60
2023-02-22T17:59:09.706Z,1.50
2023-02-22T18:01:39.243Z,1.50
2023-02-22T18:04:07.734Z,1.50
2023-02-22T18:06:38.093Z,1.50
2023-02-22T18:09:10.433Z,1.50
2023-02-22T18:11:41.015Z,1.60
2023-02-22T18:14:10.854Z,1.50
2023-02-22T18:16:39.521Z,1.50
2023-02-22T18:19:07.805Z,1.50
2023-02-22T18:21:36.076Z,1.40
2023-02-22T18:24:04.546Z,1.40
2023-02-22T18:26:32.713Z,1.40
2023-02-22T18:29:02.305Z,1.40
2023-02-22T18:31:30.601Z,1.40
2023-02-22T18:33:58.836Z,1.40
2023-02-22T18:36:27.212Z,1.30
2023-02-22T18:38:56.295Z,1.30
2023-02-22T18:41:26.303Z,1.30
2023-02-22T18:43:55.478Z,1.30
2023-02-22T18:46:25.974Z,1.40
2023-02-22T18:48:55.686Z,1.40
2023-02-22T18:51:25.529Z,1.30
2023-02-22T18:53:59.852Z,1.30
2023-02-22T18:56:30.114Z,1.30
2023-02-22T18:59:00.096Z,1.30
2023-02-22T19:01:30.553Z,1.30
2023-02-22T19:03:59.376Z,1.20
2023-02-22T19:06:27.625Z,1.20
2023-02-22T19:08:55.794Z,1.20
2023-02-22T19:11:25.639Z,1.20
2023-02-22T19:13:55.189Z,1.20
2023-02-22T19:16:24.612Z,1.20
2023-02-22T19:18:57.385Z,1.20
2023-02-22T19:21:26.922Z,1.20
2023-02-22T19:23:55.222Z,1.20
2023-02-22T19:26:25.021Z,1.20
2023-02-22T19:28:54.627Z,1.20
2023-02-22T19:31:26.377Z,1.10
2023-02-22T19:33:56.352Z,1.10
2023-02-22T19:36:24.879Z,1.10
2023-02-22T19:38:56.611Z,0.80
2023-02-22T19:41:25.167Z,0.80
2023-02-22T19:43:54.464Z,0.70
2023-02-22T19:46:25.062Z,0.70
2023-02-22T19:48:56.695Z,0.50
2023-02-22T19:51:27.844Z,0.50
2023-02-22T19:53:59.896Z,0.40
2023-02-22T19:56:29.168Z,0.50
2023-02-22T19:58:59.069Z,0.30
2023-02-22T20:01:29.857Z,0.30
2023-02-22T20:04:03.606Z,0.20
2023-02-22T20:06:35.073Z,0.30
2023-02-22T20:09:04.609Z,0.20
2023-02-22T20:11:34.866Z,0.20
2023-02-22T20:14:05.714Z,0.00
2023-02-22T20:16:35.405Z,0.10
2023-02-22T20:19:10.867Z,-0.10
2023-02-22T20:21:44.653Z,-0.10
2023-02-22T20:24:18.086Z,-0.10
2023-02-22T20:26:47.524Z,-0.20
2023-02-22T20:29:16.729Z,-0.20
2023-02-22T20:31:49.271Z,-0.10
2023-02-22T20:34:19.238Z,-0.10
2023-02-22T20:36:47.674Z,0.00
2023-02-22T20:39:16.686Z,0.00
2023-02-22T20:41:47.468Z,0.00
2023-02-22T20:44:17.379Z,0.00
2023-02-22T20:46:46.521Z,0.10
2023-02-22T20:49:19.644Z,0.10
2023-02-22T20:51:50.454Z,0.10
2023-02-22T20:54:19.224Z,0.10
2023-02-22T20:56:48.626Z,0.20
2023-02-22T20:59:23.753Z,0.10
2023-02-22T21:01:56.115Z,0.10
2023-02-22T21:04:24.887Z,0.00
2023-02-22T21:06:54.536Z,0.10
2023-02-22T21:09:23.270Z,0.00
2023-02-22T21:11:51.855Z,0.10
2023-02-22T21:14:20.394Z,0.10
2023-02-22T21:16:52.448Z,0.00
2023-02-22T21:19:26.821Z,0.00
2023-02-22T21:21:58.573Z,0.00
2023-02-22T21:24:30.641Z,0.00
2023-02-22T21:26:59.799Z,-0.20
2023-02-22T21:29:34.698Z,-0.20
2023-02-22T21:32:03.393Z,-0.30
2023-02-22T21:34:31.926Z,-0.20
2023-02-22T21:37:01.540Z,-0.30
2023-02-22T21:39:29.782Z,-0.30
2023-02-22T21:42:00.918Z,-0.40
2023-02-22T21:44:29.823Z,-0.40
2023-02-22T21:46:58.964Z,-0.50
2023-02-22T21:49:27.232Z,-0.40
2023-02-22T21:51:56.530Z,-0.50
2023-02-22T21:54:28.058Z,-0.50
2023-02-22T21:56:58.585Z,-0.60
2023-02-22T21:59:27.319Z,-0.60
2023-02-22T22:01:57.162Z,-0.60
2023-02-22T22:04:29.536Z,-0.50
2023-02-22T22:07:00.130Z,-0.80
2023-02-22T22:09:33.021Z,-0.90
2023-02-22T22:12:05.300Z,-0.90
2023-02-22T22:14:36.271Z,-0.80
2023-02-22T22:17:07.922Z,-0.80
2023-02-22T22:19:40.618Z,-0.90
2023-02-22T22:22:09.609Z,-0.80
2023-02-22T22:24:41.683Z,-0.70
2023-02-22T22:27:12.180Z,-0.70
2023-02-22T22:29:40.903Z,-0.60
2023-02-22T22:32:10.837Z,-0.70
2023-02-22T22:34:39.284Z,-0.70
2023-02-22T22:37:08.699Z,-0.50
2023-02-22T22:39:38.530Z,-0.60
2023-02-22T22:42:06.850Z,-0.50
2023-02-22T22:44:41.908Z,-0.40
2023-02-22T22:47:12.231Z,-0.40
2023-02-22T22:49:40.817Z,-0.40
2023-02-22T22:52:09.337Z,-0.30
2023-02-22T22:54:39.685Z,-0.30
2023-02-22T22:57:08.051Z,-0.30
2023-02-22T22:59:36.503Z,-0.30
2023-02-22T23:02:10.498Z,-0.30
2023-02-22T23:04:38.913Z,-0.20
2023-02-22T23:07:07.398Z,-0.20
2023-02-22T23:09:38.726Z,-0.10
2023-02-22T23:12:16.761Z,-0.10
2023-02-22T23:14:47.072Z,-0.10
2023-02-22T23:17:31.096Z,-0.20
2023-02-22T23:19:59.610Z,-0.20
2023-02-22T23:22:27.928Z,-0.20
2023-02-22T23:24:56.107Z,-0.20
2023-02-22T23:27:25.662Z,-0.20
2023-02-22T23:29:53.966Z,-0.20
2023-02-22T23:32:22.159Z,-0.20
2023-02-22T23:34:50.552Z,-0.10
2023-02-22T23:37:20.712Z,-0.20
2023-02-22T23:39:48.997Z,-0.10
2023-02-22T23:42:18.557Z,-0.10
2023-02-22T23:44:49.327Z,-0.10
2023-02-22T23:47:17.461Z,-0.10
2023-02-22T23:49:49.689Z,-0.10
2023-02-22T23:52:24.218Z,-0.10
2023-02-22T23:54:54.042Z,-0.10
2023-02-22T23:57:22.383Z,-0.20
2023-02-22T23:59:52.263Z,-0.20
